sensor_id;sensor_type;location;lat;lon;timestamp;P1;P2;P0
69222;PMS7003;56514;51.816;-0.026;2022-11-13T00:00:09;19.50;19.50;12.75
69222;PMS7003;56514;51.816;-0.026;2022-11-13T00:03:14;25.25;21.00;14.50
69222;PMS7003;56514;51.816;-0.026;2022-11-13T00:06:20;21.50;19.75;13.00
69222;PMS7003;56514;51.816;-0.026;2022-11-13T00:09:29;20.25;19.25;15.00
69222;PMS7003;56514;51.816;-0.026;2022-11-13T00:12:36;18.00;17.50;11.75
69222;PMS7003;56514;51.816;-0.026;2022-11-13T00:15:21;20.00;20.00;12.50
69222;PMS7003;56514;51.816;-0.026;2022-11-13T00:18:06;15.75;15.75;12.00
69222;PMS7003;56514;51.816;-0.026;2022-11-13T00:20:51;17.25;17.25;13.00
69222;PMS7003;56514;51.816;-0.026;2022-11-13T00:23:36;13.50;13.50;11.00
69222;PMS7003;56514;51.816;-0.026;2022-11-13T00:26:22;15.75;15.50;9.50
69222;PMS7003;56514;51.816;-0.026;2022-11-13T00:29:12;15.25;13.75;10.50
69222;PMS7003;56514;51.816;-0.026;2022-11-13T00:31:56;14.50;12.75;9.00
69222;PMS7003;56514;51.816;-0.026;2022-11-13T00:34:41;12.00;12.00;8.25
69222;PMS7003;56514;51.816;-0.026;2022-11-13T00:37:25;13.50;13.25;10.75
69222;PMS7003;56514;51.816;-0.026;2022-11-13T00:40:10;14.00;14.00;12.00
69222;PMS7003;56514;51.816;-0.026;2022-11-13T00:42:55;18.50;16.25;11.25
69222;PMS7003;56514;51.816;-0.026;2022-11-13T00:45:40;12.00;12.00;8.50
69222;PMS7003;56514;51.816;-0.026;2022-11-13T00:48:25;16.25;15.75;10.25
69222;PMS7003;56514;51.816;-0.026;2022-11-13T00:51:09;16.50;16.50;12.00
69222;PMS7003;56514;51.816;-0.026;2022-11-13T00:53:55;17.50;17.50;12.25
69222;PMS7003;56514;51.816;-0.026;2022-11-13T00:56:40;13.00;13.00;9.00
69222;PMS7003;56514;51.816;-0.026;2022-11-13T00:59:25;12.25;12.25;10.25
69222;PMS7003;56514;51.816;-0.026;2022-11-13T01:02:12;14.75;13.25;10.75
69222;PMS7003;56514;51.816;-0.026;2022-11-13T01:04:59;12.25;12.25;8.25
69222;PMS7003;56514;51.816;-0.026;2022-11-13T01:07:43;16.00;16.00;11.25
69222;PMS7003;56514;51.816;-0.026;2022-11-13T01:10:33;12.75;12.75;11.50
69222;PMS7003;56514;51.816;-0.026;2022-11-13T01:13:20;15.50;15.50;11.25
69222;PMS7003;56514;51.816;-0.026;2022-11-13T01:16:06;10.25;10.25;8.50
69222;PMS7003;56514;51.816;-0.026;2022-11-13T01:18:53;12.00;12.00;9.75
69222;PMS7003;56514;51.816;-0.026;2022-11-13T01:21:38;17.75;17.75;11.75
69222;PMS7003;56514;51.816;-0.026;2022-11-13T01:24:23;12.25;12.25;8.25
69222;PMS7003;56514;51.816;-0.026;2022-11-13T01:27:08;10.00;10.00;8.75
69222;PMS7003;56514;51.816;-0.026;2022-11-13T01:29:52;14.50;12.50;8.25
69222;PMS7003;56514;51.816;-0.026;2022-11-13T01:32:37;11.75;9.75;7.00
69222;PMS7003;56514;51.816;-0.026;2022-11-13T01:35:22;8.25;8.25;5.00
69222;PMS7003;56514;51.816;-0.026;2022-11-13T01:38:06;12.50;12.50;8.75
69222;PMS7003;56514;51.816;-0.026;2022-11-13T01:40:51;11.00;11.00;8.25
69222;PMS7003;56514;51.816;-0.026;2022-11-13T01:43:36;9.00;9.00;7.50
69222;PMS7003;56514;51.816;-0.026;2022-11-13T01:49:19;10.25;10.25;8.00
69222;PMS7003;56514;51.816;-0.026;2022-11-13T01:52:17;10.75;10.75;8.25
69222;PMS7003;56514;51.816;-0.026;2022-11-13T01:55:12;9.00;9.00;5.75
69222;PMS7003;56514;51.816;-0.026;2022-11-13T01:58:02;15.75;15.75;9.75
69222;PMS7003;56514;51.816;-0.026;2022-11-13T02:00:49;11.75;11.75;8.00
69222;PMS7003;56514;51.816;-0.026;2022-11-13T02:03:34;11.00;11.00;8.00
69222;PMS7003;56514;51.816;-0.026;2022-11-13T02:06:19;10.25;10.25;8.00
69222;PMS7003;56514;51.816;-0.026;2022-11-13T02:09:05;12.00;12.00;8.75
69222;PMS7003;56514;51.816;-0.026;2022-11-13T02:11:52;9.75;9.25;6.50
69222;PMS7003;56514;51.816;-0.026;2022-11-13T02:14:43;9.25;9.25;8.00
69222;PMS7003;56514;51.816;-0.026;2022-11-13T02:17:36;13.50;13.50;9.25
69222;PMS7003;56514;51.816;-0.026;2022-11-13T02:26:59;12.25;11.75;7.00
69222;PMS7003;56514;51.816;-0.026;2022-11-13T02:29:48;10.75;10.75;8.00
69222;PMS7003;56514;51.816;-0.026;2022-11-13T02:32:33;14.75;14.75;8.00
69222;PMS7003;56514;51.816;-0.026;2022-11-13T02:35:23;9.75;9.25;9.25
69222;PMS7003;56514;51.816;-0.026;2022-11-13T02:38:11;9.50;9.50;8.00
69222;PMS7003;56514;51.816;-0.026;2022-11-13T02:40:56;8.25;8.25;6.50
69222;PMS7003;56514;51.816;-0.026;2022-11-13T02:43:40;11.50;11.50;8.50
69222;PMS7003;56514;51.816;-0.026;2022-11-13T02:46:25;7.50;7.50;5.00
69222;PMS7003;56514;51.816;-0.026;2022-11-13T02:49:10;10.25;10.25;7.50
69222;PMS7003;56514;51.816;-0.026;2022-11-13T02:51:55;12.75;11.50;8.25
69222;PMS7003;56514;51.816;-0.026;2022-11-13T02:54:39;11.00;10.25;8.00
69222;PMS7003;56514;51.816;-0.026;2022-11-13T02:57:24;7.50;7.50;6.00
69222;PMS7003;56514;51.816;-0.026;2022-11-13T03:00:09;7.75;7.75;6.00
69222;PMS7003;56514;51.816;-0.026;2022-11-13T03:02:55;10.75;10.75;8.25
69222;PMS7003;56514;51.816;-0.026;2022-11-13T03:05:40;6.00;6.00;5.00
69222;PMS7003;56514;51.816;-0.026;2022-11-13T03:08:25;9.00;9.00;7.00
69222;PMS7003;56514;51.816;-0.026;2022-11-13T03:11:10;5.75;5.75;4.50
69222;PMS7003;56514;51.816;-0.026;2022-11-13T03:13:55;5.25;5.25;4.50
69222;PMS7003;56514;51.816;-0.026;2022-11-13T03:16:40;7.50;7.50;5.00
69222;PMS7003;56514;51.816;-0.026;2022-11-13T03:19:25;5.25;5.25;4.00
69222;PMS7003;56514;51.816;-0.026;2022-11-13T03:22:10;7.25;5.75;4.00
69222;PMS7003;56514;51.816;-0.026;2022-11-13T03:24:55;11.00;7.50;5.25
69222;PMS7003;56514;51.816;-0.026;2022-11-13T03:27:39;6.00;6.00;5.50
69222;PMS7003;56514;51.816;-0.026;2022-11-13T03:30:24;7.75;7.75;5.25
69222;PMS7003;56514;51.816;-0.026;2022-11-13T03:33:10;5.75;5.75;5.00
69222;PMS7003;56514;51.816;-0.026;2022-11-13T03:35:55;3.50;3.50;2.00
69222;PMS7003;56514;51.816;-0.026;2022-11-13T03:38:41;9.00;9.00;8.00
69222;PMS7003;56514;51.816;-0.026;2022-11-13T03:41:26;6.00;6.00;5.00
69222;PMS7003;56514;51.816;-0.026;2022-11-13T03:44:35;7.50;7.50;5.50
69222;PMS7003;56514;51.816;-0.026;2022-11-13T03:47:20;7.75;7.75;6.00
69222;PMS7003;56514;51.816;-0.026;2022-11-13T03:50:05;5.00;5.00;4.25
69222;PMS7003;56514;51.816;-0.026;2022-11-13T03:52:51;6.50;6.50;4.00
69222;PMS7003;56514;51.816;-0.026;2022-11-13T03:55:36;5.50;5.50;4.50
69222;PMS7003;56514;51.816;-0.026;2022-11-13T03:58:21;5.00;5.00;4.00
69222;PMS7003;56514;51.816;-0.026;2022-11-13T04:01:06;6.00;6.00;5.00
69222;PMS7003;56514;51.816;-0.026;2022-11-13T04:03:51;5.25;5.25;4.50
69222;PMS7003;56514;51.816;-0.026;2022-11-13T04:06:35;4.75;4.75;3.50
69222;PMS7003;56514;51.816;-0.026;2022-11-13T04:09:20;10.75;10.50;5.00
69222;PMS7003;56514;51.816;-0.026;2022-11-13T04:12:05;4.75;4.75;4.75
69222;PMS7003;56514;51.816;-0.026;2022-11-13T04:14:50;7.00;7.00;5.00
69222;PMS7003;56514;51.816;-0.026;2022-11-13T04:17:35;4.50;4.50;4.25
69222;PMS7003;56514;51.816;-0.026;2022-11-13T04:20:20;5.25;5.25;4.25
69222;PMS7003;56514;51.816;-0.026;2022-11-13T04:23:05;4.25;4.25;2.50
69222;PMS7003;56514;51.816;-0.026;2022-11-13T04:25:54;7.25;6.00;3.00
69222;PMS7003;56514;51.816;-0.026;2022-11-13T04:28:39;4.50;4.50;3.00
69222;PMS7003;56514;51.816;-0.026;2022-11-13T04:31:24;5.25;5.25;4.00
69222;PMS7003;56514;51.816;-0.026;2022-11-13T04:34:09;5.75;5.75;4.00
69222;PMS7003;56514;51.816;-0.026;2022-11-13T04:36:54;6.00;6.00;5.00
69222;PMS7003;56514;51.816;-0.026;2022-11-13T04:39:39;6.75;5.75;4.50
69222;PMS7003;56514;51.816;-0.026;2022-11-13T04:42:24;5.00;5.00;4.25
69222;PMS7003;56514;51.816;-0.026;2022-11-13T04:45:27;9.00;6.25;4.50
69222;PMS7003;56514;51.816;-0.026;2022-11-13T04:48:16;5.25;5.25;4.50
69222;PMS7003;56514;51.816;-0.026;2022-11-13T04:51:01;6.50;6.50;4.00
69222;PMS7003;56514;51.816;-0.026;2022-11-13T04:53:46;4.50;4.50;4.00
69222;PMS7003;56514;51.816;-0.026;2022-11-13T04:56:31;5.25;5.25;3.50
69222;PMS7003;56514;51.816;-0.026;2022-11-13T04:59:16;6.00;6.00;4.50
69222;PMS7003;56514;51.816;-0.026;2022-11-13T05:02:01;5.75;5.75;3.75
69222;PMS7003;56514;51.816;-0.026;2022-11-13T05:04:47;6.00;6.00;4.00
69222;PMS7003;56514;51.816;-0.026;2022-11-13T05:07:32;7.75;7.75;5.25
69222;PMS7003;56514;51.816;-0.026;2022-11-13T05:10:16;4.50;4.50;4.00
69222;PMS7003;56514;51.816;-0.026;2022-11-13T05:13:01;6.25;6.25;4.25
69222;PMS7003;56514;51.816;-0.026;2022-11-13T05:15:46;6.00;6.00;4.25
69222;PMS7003;56514;51.816;-0.026;2022-11-13T05:18:31;4.25;4.25;2.50
69222;PMS7003;56514;51.816;-0.026;2022-11-13T05:21:17;5.00;5.00;4.25
69222;PMS7003;56514;51.816;-0.026;2022-11-13T05:24:02;2.50;2.50;2.00
69222;PMS7003;56514;51.816;-0.026;2022-11-13T05:26:48;4.25;4.25;4.00
69222;PMS7003;56514;51.816;-0.026;2022-11-13T05:29:33;5.00;5.00;3.75
69222;PMS7003;56514;51.816;-0.026;2022-11-13T05:32:18;5.25;5.25;4.25
69222;PMS7003;56514;51.816;-0.026;2022-11-13T05:35:03;7.50;6.50;4.00
69222;PMS7003;56514;51.816;-0.026;2022-11-13T05:37:48;7.75;7.75;6.00
69222;PMS7003;56514;51.816;-0.026;2022-11-13T05:40:33;5.75;5.25;4.25
69222;PMS7003;56514;51.816;-0.026;2022-11-13T05:43:18;5.25;5.00;4.00
69222;PMS7003;56514;51.816;-0.026;2022-11-13T05:46:04;6.25;6.25;5.25
69222;PMS7003;56514;51.816;-0.026;2022-11-13T05:48:52;6.75;6.75;5.50
69222;PMS7003;56514;51.816;-0.026;2022-11-13T05:51:39;9.25;8.00;6.25
69222;PMS7003;56514;51.816;-0.026;2022-11-13T05:54:23;5.50;5.50;4.25
69222;PMS7003;56514;51.816;-0.026;2022-11-13T05:57:08;7.50;6.25;5.00
69222;PMS7003;56514;51.816;-0.026;2022-11-13T05:59:53;7.50;7.50;4.75
69222;PMS7003;56514;51.816;-0.026;2022-11-13T06:02:38;5.00;5.00;4.00
69222;PMS7003;56514;51.816;-0.026;2022-11-13T06:05:23;6.00;6.00;5.00
69222;PMS7003;56514;51.816;-0.026;2022-11-13T06:08:07;5.25;5.25;4.00
69222;PMS7003;56514;51.816;-0.026;2022-11-13T06:10:52;4.75;4.75;3.50
69222;PMS7003;56514;51.816;-0.026;2022-11-13T06:13:46;5.25;5.25;4.00
69222;PMS7003;56514;51.816;-0.026;2022-11-13T06:16:33;3.00;3.00;2.00
69222;PMS7003;56514;51.816;-0.026;2022-11-13T06:19:19;4.25;4.25;3.50
69222;PMS7003;56514;51.816;-0.026;2022-11-13T06:22:04;4.50;4.50;3.50
69222;PMS7003;56514;51.816;-0.026;2022-11-13T06:24:49;1.75;1.75;1.00
69222;PMS7003;56514;51.816;-0.026;2022-11-13T06:27:34;4.00;4.00;4.00
69222;PMS7003;56514;51.816;-0.026;2022-11-13T06:30:19;4.75;4.75;3.50
69222;PMS7003;56514;51.816;-0.026;2022-11-13T06:33:04;4.50;4.50;3.50
69222;PMS7003;56514;51.816;-0.026;2022-11-13T06:35:49;7.25;7.25;4.25
69222;PMS7003;56514;51.816;-0.026;2022-11-13T06:38:35;2.00;2.00;2.00
69222;PMS7003;56514;51.816;-0.026;2022-11-13T06:41:22;3.50;3.50;2.00
69222;PMS7003;56514;51.816;-0.026;2022-11-13T06:44:13;2.50;2.50;1.75
69222;PMS7003;56514;51.816;-0.026;2022-11-13T06:46:58;4.25;4.25;4.00
69222;PMS7003;56514;51.816;-0.026;2022-11-13T06:49:42;3.50;3.50;2.00
69222;PMS7003;56514;51.816;-0.026;2022-11-13T06:52:27;4.00;4.00;1.25
69222;PMS7003;56514;51.816;-0.026;2022-11-13T06:55:13;2.50;2.50;1.25
69222;PMS7003;56514;51.816;-0.026;2022-11-13T06:57:58;1.25;1.25;1.00
69222;PMS7003;56514;51.816;-0.026;2022-11-13T07:00:43;2.00;2.00;2.00
69222;PMS7003;56514;51.816;-0.026;2022-11-13T07:03:28;1.00;1.00;0.00
69222;PMS7003;56514;51.816;-0.026;2022-11-13T07:06:18;2.00;2.00;2.00
69222;PMS7003;56514;51.816;-0.026;2022-11-13T07:09:06;1.75;1.75;1.75
69222;PMS7003;56514;51.816;-0.026;2022-11-13T07:11:51;2.00;2.00;2.00
69222;PMS7003;56514;51.816;-0.026;2022-11-13T07:14:36;1.25;1.25;1.25
69222;PMS7003;56514;51.816;-0.026;2022-11-13T07:17:20;1.75;1.75;1.75
69222;PMS7003;56514;51.816;-0.026;2022-11-13T07:20:05;4.00;4.00;2.00
69222;PMS7003;56514;51.816;-0.026;2022-11-13T07:22:53;2.00;2.00;2.00
69222;PMS7003;56514;51.816;-0.026;2022-11-13T07:25:41;1.00;1.00;1.00
69222;PMS7003;56514;51.816;-0.026;2022-11-13T07:28:26;1.00;1.00;1.00
69222;PMS7003;56514;51.816;-0.026;2022-11-13T07:31:11;1.00;1.00;0.50
69222;PMS7003;56514;51.816;-0.026;2022-11-13T07:33:57;1.00;1.00;1.00
69222;PMS7003;56514;51.816;-0.026;2022-11-13T07:36:42;2.00;2.00;2.00
69222;PMS7003;56514;51.816;-0.026;2022-11-13T07:39:27;1.25;1.25;1.00
69222;PMS7003;56514;51.816;-0.026;2022-11-13T07:42:11;3.00;3.00;1.50
69222;PMS7003;56514;51.816;-0.026;2022-11-13T07:44:56;1.25;1.25;1.00
69222;PMS7003;56514;51.816;-0.026;2022-11-13T07:47:41;1.75;1.75;1.00
69222;PMS7003;56514;51.816;-0.026;2022-11-13T07:50:33;1.75;1.75;1.75
69222;PMS7003;56514;51.816;-0.026;2022-11-13T07:53:20;3.50;2.00;1.00
69222;PMS7003;56514;51.816;-0.026;2022-11-13T07:56:05;2.00;2.00;2.00
69222;PMS7003;56514;51.816;-0.026;2022-11-13T07:58:50;1.50;1.50;1.50
69222;PMS7003;56514;51.816;-0.026;2022-11-13T08:01:35;1.00;1.00;1.00
69222;PMS7003;56514;51.816;-0.026;2022-11-13T08:04:21;0.75;0.75;0.00
69222;PMS7003;56514;51.816;-0.026;2022-11-13T08:07:06;1.00;1.00;1.00
69222;PMS7003;56514;51.816;-0.026;2022-11-13T08:09:53;1.50;1.50;1.50
69222;PMS7003;56514;51.816;-0.026;2022-11-13T08:12:38;1.00;1.00;0.25
69222;PMS7003;56514;51.816;-0.026;2022-11-13T08:15:23;1.00;1.00;0.75
69222;PMS7003;56514;51.816;-0.026;2022-11-13T08:18:08;1.00;1.00;1.00
69222;PMS7003;56514;51.816;-0.026;2022-11-13T08:20:53;1.75;1.75;1.50
69222;PMS7003;56514;51.816;-0.026;2022-11-13T08:23:39;1.75;1.75;1.75
69222;PMS7003;56514;51.816;-0.026;2022-11-13T08:26:25;1.00;1.00;1.00
69222;PMS7003;56514;51.816;-0.026;2022-11-13T08:29:11;2.00;2.00;2.00
69222;PMS7003;56514;51.816;-0.026;2022-11-13T08:32:02;1.25;1.25;1.00
69222;PMS7003;56514;51.816;-0.026;2022-11-13T08:34:49;1.00;1.00;1.00
69222;PMS7003;56514;51.816;-0.026;2022-11-13T08:37:34;4.25;4.25;2.50
69222;PMS7003;56514;51.816;-0.026;2022-11-13T08:40:19;1.25;1.25;1.25
69222;PMS7003;56514;51.816;-0.026;2022-11-13T08:43:04;1.75;1.75;1.00
69222;PMS7003;56514;51.816;-0.026;2022-11-13T08:45:48;1.75;1.75;1.25
69222;PMS7003;56514;51.816;-0.026;2022-11-13T08:48:33;0.25;0.25;0.25
69222;PMS7003;56514;51.816;-0.026;2022-11-13T08:51:18;2.00;2.00;1.25
69222;PMS7003;56514;51.816;-0.026;2022-11-13T08:54:04;1.75;1.75;1.00
69222;PMS7003;56514;51.816;-0.026;2022-11-13T08:56:48;1.00;1.00;1.00
69222;PMS7003;56514;51.816;-0.026;2022-11-13T08:59:34;1.00;1.00;1.00
69222;PMS7003;56514;51.816;-0.026;2022-11-13T09:02:18;1.00;1.00;1.00
69222;PMS7003;56514;51.816;-0.026;2022-11-13T09:05:03;0.00;0.00;0.00
69222;PMS7003;56514;51.816;-0.026;2022-11-13T09:07:48;1.00;1.00;1.00
69222;PMS7003;56514;51.816;-0.026;2022-11-13T09:10:34;1.00;1.00;1.00
69222;PMS7003;56514;51.816;-0.026;2022-11-13T09:13:19;0.00;0.00;0.00
69222;PMS7003;56514;51.816;-0.026;2022-11-13T09:16:03;1.00;1.00;1.00
69222;PMS7003;56514;51.816;-0.026;2022-11-13T09:18:49;0.25;0.25;0.25
69222;PMS7003;56514;51.816;-0.026;2022-11-13T09:21:34;0.75;0.75;0.75
69222;PMS7003;56514;51.816;-0.026;2022-11-13T09:24:19;0.50;0.50;0.50
69222;PMS7003;56514;51.816;-0.026;2022-11-13T09:27:04;0.00;0.00;0.00
69222;PMS7003;56514;51.816;-0.026;2022-11-13T09:29:48;1.00;1.00;1.00
69222;PMS7003;56514;51.816;-0.026;2022-11-13T09:32:33;0.25;0.25;0.25
69222;PMS7003;56514;51.816;-0.026;2022-11-13T09:35:18;0.00;0.00;0.00
69222;PMS7003;56514;51.816;-0.026;2022-11-13T09:38:17;4.00;4.00;2.00
69222;PMS7003;56514;51.816;-0.026;2022-11-13T09:41:12;4.50;4.50;4.25
69222;PMS7003;56514;51.816;-0.026;2022-11-13T09:44:02;5.25;4.00;2.00
69222;PMS7003;56514;51.816;-0.026;2022-11-13T09:46:50;3.50;3.50;2.50
69222;PMS7003;56514;51.816;-0.026;2022-11-13T09:49:39;1.75;1.75;1.75
69222;PMS7003;56514;51.816;-0.026;2022-11-13T09:52:31;2.00;2.00;1.75
69222;PMS7003;56514;51.816;-0.026;2022-11-13T09:55:21;2.75;2.75;2.00
69222;PMS7003;56514;51.816;-0.026;2022-11-13T09:58:22;1.50;1.50;1.50
69222;PMS7003;56514;51.816;-0.026;2022-11-13T10:01:27;1.75;1.75;1.50
69222;PMS7003;56514;51.816;-0.026;2022-11-13T10:04:21;1.00;1.00;1.00
69222;PMS7003;56514;51.816;-0.026;2022-11-13T10:10:43;1.00;1.00;1.00
69222;PMS7003;56514;51.816;-0.026;2022-11-13T10:13:39;1.00;1.00;1.00
69222;PMS7003;56514;51.816;-0.026;2022-11-13T10:22:22;0.00;0.00;0.00
69222;PMS7003;56514;51.816;-0.026;2022-11-13T10:25:33;1.00;1.00;1.00
69222;PMS7003;56514;51.816;-0.026;2022-11-13T10:28:20;0.50;0.50;0.50
69222;PMS7003;56514;51.816;-0.026;2022-11-13T10:31:08;1.00;1.00;1.00
69222;PMS7003;56514;51.816;-0.026;2022-11-13T10:33:55;2.00;2.00;2.00
69222;PMS7003;56514;51.816;-0.026;2022-11-13T10:39:28;0.25;0.25;0.25
69222;PMS7003;56514;51.816;-0.026;2022-11-13T10:42:21;1.25;1.25;1.00
69222;PMS7003;56514;51.816;-0.026;2022-11-13T10:45:15;1.00;1.00;1.00
69222;PMS7003;56514;51.816;-0.026;2022-11-13T10:48:02;1.00;1.00;1.00
69222;PMS7003;56514;51.816;-0.026;2022-11-13T10:51:17;1.25;1.25;1.25
69222;PMS7003;56514;51.816;-0.026;2022-11-13T10:54:23;1.75;1.75;1.25
69222;PMS7003;56514;51.816;-0.026;2022-11-13T10:57:32;4.00;4.00;2.50
69222;PMS7003;56514;51.816;-0.026;2022-11-13T11:00:22;2.50;2.50;2.50
69222;PMS7003;56514;51.816;-0.026;2022-11-13T11:03:13;2.00;2.00;2.00
69222;PMS7003;56514;51.816;-0.026;2022-11-13T11:06:02;2.50;2.50;2.00
69222;PMS7003;56514;51.816;-0.026;2022-11-13T11:08:48;3.50;3.50;2.00
69222;PMS7003;56514;51.816;-0.026;2022-11-13T11:11:32;4.00;4.00;3.50
69222;PMS7003;56514;51.816;-0.026;2022-11-13T11:14:37;2.00;2.00;2.00
69222;PMS7003;56514;51.816;-0.026;2022-11-13T11:26:10;5.75;5.25;4.50
69222;PMS7003;56514;51.816;-0.026;2022-11-13T11:29:02;5.00;5.00;4.00
69222;PMS7003;56514;51.816;-0.026;2022-11-13T11:38:07;6.50;6.50;4.75
69222;PMS7003;56514;51.816;-0.026;2022-11-13T11:41:02;6.25;6.25;5.25
69222;PMS7003;56514;51.816;-0.026;2022-11-13T11:44:00;5.00;5.00;5.00
69222;PMS7003;56514;51.816;-0.026;2022-11-13T11:46:57;9.75;9.75;6.00
69222;PMS7003;56514;51.816;-0.026;2022-11-13T11:49:45;8.25;7.75;6.00
69222;PMS7003;56514;51.816;-0.026;2022-11-13T11:52:41;7.00;7.00;6.00
69222;PMS7003;56514;51.816;-0.026;2022-11-13T12:02:26;2.00;2.00;2.00
69222;PMS7003;56514;51.816;-0.026;2022-11-13T12:12:12;6.00;6.00;5.75
69222;PMS7003;56514;51.816;-0.026;2022-11-13T12:20:59;5.25;5.25;5.25
69222;PMS7003;56514;51.816;-0.026;2022-11-13T12:27:02;6.75;6.75;4.75
69222;PMS7003;56514;51.816;-0.026;2022-11-13T12:35:40;6.00;6.00;4.50
69222;PMS7003;56514;51.816;-0.026;2022-11-13T12:38:33;5.75;5.75;5.25
69222;PMS7003;56514;51.816;-0.026;2022-11-13T12:48:19;6.00;6.00;5.00
69222;PMS7003;56514;51.816;-0.026;2022-11-13T12:51:10;9.75;9.75;6.75
69222;PMS7003;56514;51.816;-0.026;2022-11-13T12:53:57;6.00;6.00;5.00
69222;PMS7003;56514;51.816;-0.026;2022-11-13T12:56:42;10.00;10.00;7.00
69222;PMS7003;56514;51.816;-0.026;2022-11-13T13:02:29;9.00;9.00;7.00
69222;PMS7003;56514;51.816;-0.026;2022-11-13T13:05:30;13.25;13.25;9.50
69222;PMS7003;56514;51.816;-0.026;2022-11-13T13:08:32;10.50;10.50;7.00
69222;PMS7003;56514;51.816;-0.026;2022-11-13T13:17:40;9.25;9.00;7.00
69222;PMS7003;56514;51.816;-0.026;2022-11-13T13:20:29;10.00;10.00;7.00
69222;PMS7003;56514;51.816;-0.026;2022-11-13T13:23:27;10.50;10.50;9.00
69222;PMS7003;56514;51.816;-0.026;2022-11-13T13:26:23;7.50;7.50;6.50
69222;PMS7003;56514;51.816;-0.026;2022-11-13T13:29:15;10.75;10.75;9.75
69222;PMS7003;56514;51.816;-0.026;2022-11-13T13:32:25;8.75;8.75;7.00
69222;PMS7003;56514;51.816;-0.026;2022-11-13T13:35:21;9.50;9.50;8.50
69222;PMS7003;56514;51.816;-0.026;2022-11-13T13:38:23;12.75;12.75;10.75
69222;PMS7003;56514;51.816;-0.026;2022-11-13T13:41:20;14.75;14.75;9.50
69222;PMS7003;56514;51.816;-0.026;2022-11-13T13:44:48;15.50;14.50;9.75
69222;PMS7003;56514;51.816;-0.026;2022-11-13T13:47:46;11.50;11.50;10.00
69222;PMS7003;56514;51.816;-0.026;2022-11-13T13:50:43;12.25;12.25;10.00
69222;PMS7003;56514;51.816;-0.026;2022-11-13T13:53:31;12.25;12.25;9.50
69222;PMS7003;56514;51.816;-0.026;2022-11-13T13:56:19;15.50;14.50;11.00
69222;PMS7003;56514;51.816;-0.026;2022-11-13T13:59:17;13.50;13.50;10.50
69222;PMS7003;56514;51.816;-0.026;2022-11-13T14:02:12;13.75;13.75;10.75
69222;PMS7003;56514;51.816;-0.026;2022-11-13T14:08:22;11.75;11.75;9.00
69222;PMS7003;56514;51.816;-0.026;2022-11-13T14:11:19;10.75;10.75;9.00
69222;PMS7003;56514;51.816;-0.026;2022-11-13T14:14:18;10.50;10.50;8.25
69222;PMS7003;56514;51.816;-0.026;2022-11-13T14:17:05;11.50;11.50;8.75
69222;PMS7003;56514;51.816;-0.026;2022-11-13T14:19:52;10.50;10.50;9.00
69222;PMS7003;56514;51.816;-0.026;2022-11-13T14:22:39;10.00;10.00;8.25
69222;PMS7003;56514;51.816;-0.026;2022-11-13T14:25:27;10.25;10.25;8.25
69222;PMS7003;56514;51.816;-0.026;2022-11-13T14:28:17;7.00;7.00;6.25
69222;PMS7003;56514;51.816;-0.026;2022-11-13T14:31:04;6.25;6.25;6.00
69222;PMS7003;56514;51.816;-0.026;2022-11-13T14:33:51;10.00;9.25;8.00
69222;PMS7003;56514;51.816;-0.026;2022-11-13T14:36:36;7.25;7.25;7.00
69222;PMS7003;56514;51.816;-0.026;2022-11-13T14:39:27;6.75;6.75;6.25
69222;PMS7003;56514;51.816;-0.026;2022-11-13T14:42:25;10.00;10.00;7.00
69222;PMS7003;56514;51.816;-0.026;2022-11-13T14:45:24;11.25;11.25;9.50
69222;PMS7003;56514;51.816;-0.026;2022-11-13T14:48:18;7.50;7.50;5.50
69222;PMS7003;56514;51.816;-0.026;2022-11-13T14:51:06;6.75;6.75;6.00
69222;PMS7003;56514;51.816;-0.026;2022-11-13T14:54:25;6.75;6.75;6.50
69222;PMS7003;56514;51.816;-0.026;2022-11-13T14:57:12;12.00;12.00;10.00
69222;PMS7003;56514;51.816;-0.026;2022-11-13T15:00:09;15.50;15.50;12.25
69222;PMS7003;56514;51.816;-0.026;2022-11-13T15:02:56;18.00;18.00;14.00
69222;PMS7003;56514;51.816;-0.026;2022-11-13T15:05:42;16.25;16.25;13.00
69222;PMS7003;56514;51.816;-0.026;2022-11-13T15:08:27;18.00;18.00;14.50
69222;PMS7003;56514;51.816;-0.026;2022-11-13T15:11:13;17.25;17.25;12.75
69222;PMS7003;56514;51.816;-0.026;2022-11-13T15:13:59;15.00;15.00;12.25
69222;PMS7003;56514;51.816;-0.026;2022-11-13T15:16:44;15.25;15.25;10.75
69222;PMS7003;56514;51.816;-0.026;2022-11-13T15:19:31;18.00;17.25;13.25
69222;PMS7003;56514;51.816;-0.026;2022-11-13T15:22:18;17.00;17.00;12.75
69222;PMS7003;56514;51.816;-0.026;2022-11-13T15:25:05;16.00;15.75;12.00
69222;PMS7003;56514;51.816;-0.026;2022-11-13T15:27:56;13.00;13.00;10.25
69222;PMS7003;56514;51.816;-0.026;2022-11-13T15:30:41;12.00;12.00;8.25
69222;PMS7003;56514;51.816;-0.026;2022-11-13T15:33:26;13.00;13.00;9.50
69222;PMS7003;56514;51.816;-0.026;2022-11-13T15:36:11;11.75;11.75;8.75
69222;PMS7003;56514;51.816;-0.026;2022-11-13T15:38:56;12.25;12.25;9.00
69222;PMS7003;56514;51.816;-0.026;2022-11-13T15:41:41;12.00;12.00;8.75
69222;PMS7003;56514;51.816;-0.026;2022-11-13T15:44:25;10.25;10.25;7.75
69222;PMS7003;56514;51.816;-0.026;2022-11-13T15:47:30;8.25;8.25;7.25
69222;PMS7003;56514;51.816;-0.026;2022-11-13T15:50:18;19.50;18.00;12.25
69222;PMS7003;56514;51.816;-0.026;2022-11-13T15:53:03;15.75;15.75;11.25
69222;PMS7003;56514;51.816;-0.026;2022-11-13T15:55:49;14.00;14.00;11.00
69222;PMS7003;56514;51.816;-0.026;2022-11-13T15:58:35;12.75;12.75;11.25
69222;PMS7003;56514;51.816;-0.026;2022-11-13T16:01:19;11.00;11.00;9.25
69222;PMS7003;56514;51.816;-0.026;2022-11-13T16:04:05;11.00;11.00;10.00
69222;PMS7003;56514;51.816;-0.026;2022-11-13T16:06:50;10.25;10.25;9.25
69222;PMS7003;56514;51.816;-0.026;2022-11-13T16:09:35;11.50;11.50;10.00
69222;PMS7003;56514;51.816;-0.026;2022-11-13T16:12:20;16.75;16.75;14.50
69222;PMS7003;56514;51.816;-0.026;2022-11-13T16:15:05;17.25;17.25;14.00
69222;PMS7003;56514;51.816;-0.026;2022-11-13T16:17:52;21.00;21.00;16.00
69222;PMS7003;56514;51.816;-0.026;2022-11-13T16:20:39;25.75;23.75;17.75
69222;PMS7003;56514;51.816;-0.026;2022-11-13T16:23:24;18.75;18.75;15.50
69222;PMS7003;56514;51.816;-0.026;2022-11-13T16:26:17;20.00;18.50;14.00
69222;PMS7003;56514;51.816;-0.026;2022-11-13T16:29:10;23.50;21.75;16.50
69222;PMS7003;56514;51.816;-0.026;2022-11-13T16:32:03;27.50;27.50;21.00
69222;PMS7003;56514;51.816;-0.026;2022-11-13T16:34:48;20.00;20.00;16.00
69222;PMS7003;56514;51.816;-0.026;2022-11-13T16:37:33;16.75;16.75;12.25
69222;PMS7003;56514;51.816;-0.026;2022-11-13T16:40:23;12.67;12.67;11.33
69222;PMS7003;56514;51.816;-0.026;2022-11-13T16:43:09;14.00;14.00;12.50
69222;PMS7003;56514;51.816;-0.026;2022-11-13T16:45:54;17.00;17.00;15.00
69222;PMS7003;56514;51.816;-0.026;2022-11-13T16:48:43;15.50;15.50;11.75
69222;PMS7003;56514;51.816;-0.026;2022-11-13T16:51:28;18.00;18.00;15.00
69222;PMS7003;56514;51.816;-0.026;2022-11-13T16:54:16;19.25;19.25;16.25
69222;PMS7003;56514;51.816;-0.026;2022-11-13T16:57:01;21.00;21.00;14.25
69222;PMS7003;56514;51.816;-0.026;2022-11-13T16:59:46;19.75;18.50;11.25
69222;PMS7003;56514;51.816;-0.026;2022-11-13T17:02:30;24.00;22.75;16.00
69222;PMS7003;56514;51.816;-0.026;2022-11-13T17:05:16;18.25;18.25;13.00
69222;PMS7003;56514;51.816;-0.026;2022-11-13T17:08:02;18.75;18.00;13.75
69222;PMS7003;56514;51.816;-0.026;2022-11-13T17:10:55;15.00;15.00;11.00
69222;PMS7003;56514;51.816;-0.026;2022-11-13T17:13:41;17.75;17.50;14.50
69222;PMS7003;56514;51.816;-0.026;2022-11-13T17:16:33;12.75;12.75;12.00
69222;PMS7003;56514;51.816;-0.026;2022-11-13T17:19:18;19.25;19.25;15.50
69222;PMS7003;56514;51.816;-0.026;2022-11-13T17:22:02;16.00;16.00;14.00